AAH244 PLCH-PHNL
Flight info
| Callsign | AAH244 |
|---|---|
| Flight time | N/A |
| Altitude | 38000 |
| Route | XI WOSLU 10N157W 15N156W NOYES KOA V20 HOKLA JULLE5 |
| Aircraft | B736/M-SDE2E3FGHIRWXY/LB1 |
Departure
| Time | 2026-04-10 23:42 |
|---|---|
| Airport | Cassidy International Airport (PLCH) |
Arrival
| Time | N/A |
|---|---|
| Airport | Daniel K. Inouye International Airport (PHNL) |
| Time | Latitude | Longitude | Altitude | Speed | Heading |
|---|---|---|---|---|---|
| 2026-04-10 23:35 | 1.98387 | -157.35586 | 16 ft | 0 kts | 142° |
| 2026-04-10 23:38 | 1.98387 | -157.35584 | 18 ft | 1 kts | 118° |
| 2026-04-10 23:38 | 1.98392 | -157.35579 | 15 ft | 2 kts | 48° |
| 2026-04-10 23:38 | 1.98422 | -157.35545 | 13 ft | 10 kts | 50° |
| 2026-04-10 23:39 | 1.98474 | -157.35480 | 13 ft | 14 kts | 52° |
| 2026-04-10 23:39 | 1.98534 | -157.35401 | 13 ft | 14 kts | 53° |
| 2026-04-10 23:39 | 1.98598 | -157.35331 | 11 ft | 14 kts | 19° |
| 2026-04-10 23:39 | 1.98628 | -157.35405 | 11 ft | 13 kts | 271° |
| 2026-04-10 23:40 | 1.98629 | -157.35493 | 11 ft | 13 kts | 268° |
| 2026-04-10 23:40 | 1.98628 | -157.35582 | 11 ft | 12 kts | 269° |
| 2026-04-10 23:40 | 1.98628 | -157.35669 | 12 ft | 13 kts | 270° |
| 2026-04-10 23:40 | 1.98629 | -157.35762 | 13 ft | 13 kts | 270° |
| 2026-04-10 23:41 | 1.98636 | -157.35852 | 17 ft | 13 kts | 275° |
| 2026-04-10 23:41 | 1.98638 | -157.35917 | 14 ft | 2 kts | 236° |
| 2026-04-10 23:41 | 1.98628 | -157.35908 | 17 ft | 3 kts | 106° |
| 2026-04-10 23:41 | 1.98628 | -157.35898 | 17 ft | 2 kts | 92° |
| 2026-04-10 23:42 | 1.98627 | -157.35690 | 12 ft | 71 kts | 90° |
| 2026-04-10 23:42 | 1.98627 | -157.34942 | 23 ft | 141 kts | 91° |
| 2026-04-10 23:42 | 1.98623 | -157.33919 | 728 ft | 144 kts | 91° |
| 2026-04-10 23:42 | 1.98614 | -157.32944 | 1745 ft | 144 kts | 89° |
| 2026-04-10 23:43 | 1.98601 | -157.31838 | 2256 ft | 179 kts | 85° |
| 2026-04-10 23:43 | 1.99224 | -157.30678 | 2672 ft | 208 kts | 43° |
| 2026-04-10 23:43 | 2.00658 | -157.30136 | 2937 ft | 238 kts | 7° |
| 2026-04-10 23:43 | 2.02405 | -157.30156 | 3293 ft | 263 kts | 1° |
| 2026-04-10 23:44 | 2.04286 | -157.30235 | 3951 ft | 273 kts | 0° |
| 2026-04-10 23:44 | 2.06174 | -157.30317 | 4953 ft | 272 kts | 1° |
| 2026-04-10 23:44 | 2.08051 | -157.30376 | 5840 ft | 274 kts | 2° |
| 2026-04-10 23:44 | 2.09974 | -157.30414 | 6681 ft | 278 kts | 3° |
| 2026-04-10 23:45 | 2.11933 | -157.30431 | 7432 ft | 284 kts | 4° |
| 2026-04-10 23:45 | 2.13923 | -157.30433 | 8224 ft | 288 kts | 4° |
| 2026-04-10 23:45 | 2.15948 | -157.30423 | 9007 ft | 293 kts | 5° |
| 2026-04-10 23:45 | 2.18005 | -157.30405 | 9804 ft | 297 kts | 5° |
| 2026-04-10 23:46 | 2.20076 | -157.30380 | 10388 ft | 308 kts | 5° |
| 2026-04-10 23:46 | 2.22314 | -157.30343 | 10553 ft | 334 kts | 5° |
| 2026-04-10 23:46 | 2.24715 | -157.30301 | 10836 ft | 352 kts | 5° |
| 2026-04-10 23:46 | 2.27204 | -157.30260 | 11409 ft | 359 kts | 5° |
| 2026-04-10 23:47 | 2.29680 | -157.30219 | 12102 ft | 362 kts | 5° |
| 2026-04-10 23:47 | 2.32214 | -157.30177 | 12815 ft | 366 kts | 5° |
| 2026-04-10 23:47 | 2.34782 | -157.30133 | 13512 ft | 370 kts | 5° |
| 2026-04-10 23:47 | 2.37380 | -157.30087 | 14155 ft | 374 kts | 4° |
| 2026-04-10 23:48 | 2.39996 | -157.30040 | 14811 ft | 377 kts | 4° |
| 2026-04-10 23:48 | 2.42607 | -157.29993 | 15472 ft | 380 kts | 4° |
| 2026-04-10 23:48 | 2.45267 | -157.29945 | 16133 ft | 383 kts | 3° |
| 2026-04-10 23:48 | 2.47941 | -157.29896 | 16776 ft | 386 kts | 3° |
| 2026-04-10 23:49 | 2.50639 | -157.29846 | 17416 ft | 389 kts | 2° |
| 2026-04-10 23:49 | 2.53361 | -157.29796 | 18038 ft | 393 kts | 2° |
| 2026-04-10 23:49 | 2.55173 | -157.29762 | 18394 ft | 395 kts | 2° |
| 2026-04-10 23:49 | 2.57930 | -157.29711 | 18963 ft | 397 kts | 2° |
| 2026-04-10 23:50 | 2.60705 | -157.29660 | 19551 ft | 398 kts | 2° |
| 2026-04-10 23:50 | 2.63493 | -157.29608 | 20128 ft | 399 kts | 2° |
| 2026-04-10 23:50 | 2.66250 | -157.29557 | 20679 ft | 401 kts | 2° |
| 2026-04-10 23:50 | 2.69063 | -157.29505 | 21209 ft | 404 kts | 2° |
| 2026-04-10 23:51 | 2.71887 | -157.29452 | 21736 ft | 406 kts | 2° |
| 2026-04-10 23:51 | 2.74684 | -157.29401 | 22251 ft | 408 kts | 1° |
| 2026-04-10 23:51 | 2.77547 | -157.29347 | 22772 ft | 411 kts | 1° |
| 2026-04-10 23:51 | 2.80410 | -157.29294 | 23274 ft | 413 kts | 1° |
| 2026-04-10 23:52 | 2.83302 | -157.29240 | 23704 ft | 415 kts | 1° |
| 2026-04-10 23:52 | 2.86206 | -157.29187 | 24108 ft | 417 kts | 1° |
| 2026-04-10 23:52 | 2.89123 | -157.29133 | 24506 ft | 420 kts | 0° |
| 2026-04-10 23:52 | 2.92014 | -157.29079 | 24888 ft | 422 kts | 0° |
| 2026-04-10 23:53 | 2.94961 | -157.29024 | 25267 ft | 424 kts | 360° |
| 2026-04-10 23:53 | 2.97925 | -157.28970 | 25636 ft | 426 kts | 360° |
| 2026-04-10 23:53 | 3.00908 | -157.28914 | 26001 ft | 428 kts | 359° |
| 2026-04-10 23:53 | 3.03865 | -157.28859 | 26349 ft | 430 kts | 359° |
| 2026-04-10 23:54 | 3.06870 | -157.28804 | 26696 ft | 433 kts | 359° |
| 2026-04-10 23:54 | 3.09901 | -157.28748 | 27029 ft | 435 kts | 359° |
| 2026-04-10 23:54 | 3.12907 | -157.28692 | 27357 ft | 437 kts | 358° |
| 2026-04-10 23:54 | 3.15948 | -157.28635 | 27677 ft | 439 kts | 358° |
| 2026-04-10 23:55 | 3.19010 | -157.28578 | 27981 ft | 441 kts | 358° |
| 2026-04-10 23:55 | 3.22100 | -157.28521 | 28276 ft | 443 kts | 358° |
| 2026-04-10 23:55 | 3.25200 | -157.28463 | 28572 ft | 445 kts | 358° |
| 2026-04-10 23:55 | 3.28309 | -157.28406 | 28858 ft | 447 kts | 357° |
| 2026-04-10 23:56 | 3.31395 | -157.28348 | 29127 ft | 449 kts | 357° |
| 2026-04-10 23:56 | 3.34525 | -157.28290 | 29404 ft | 451 kts | 357° |
| 2026-04-10 23:56 | 3.37667 | -157.28232 | 29665 ft | 453 kts | 357° |
| 2026-04-10 23:56 | 3.40820 | -157.28173 | 29917 ft | 455 kts | 357° |
| 2026-04-10 23:57 | 3.43995 | -157.28114 | 30120 ft | 456 kts | 356° |
| 2026-04-10 23:57 | 3.47176 | -157.28054 | 30330 ft | 458 kts | 356° |
| 2026-04-10 23:57 | 3.50372 | -157.27995 | 30546 ft | 459 kts | 356° |
| 2026-04-10 23:57 | 3.53581 | -157.27935 | 30769 ft | 461 kts | 356° |
| 2026-04-10 23:58 | 3.56793 | -157.27874 | 31037 ft | 461 kts | 356° |
| 2026-04-10 23:58 | 3.59999 | -157.27814 | 31362 ft | 460 kts | 356° |
| 2026-04-10 23:58 | 3.63151 | -157.27754 | 31710 ft | 458 kts | 356° |
| 2026-04-10 23:58 | 3.66347 | -157.27694 | 32070 ft | 457 kts | 356° |
| 2026-04-10 23:59 | 3.69522 | -157.27634 | 32421 ft | 456 kts | 356° |
| 2026-04-10 23:59 | 3.72699 | -157.27575 | 32787 ft | 455 kts | 356° |
| 2026-04-10 23:59 | 3.75868 | -157.27516 | 33168 ft | 454 kts | 356° |
| 2026-04-10 23:59 | 3.79035 | -157.27457 | 33579 ft | 453 kts | 356° |
| 2026-04-11 00:00 | 3.82139 | -157.27399 | 33957 ft | 452 kts | 356° |
| 2026-04-11 00:00 | 3.85293 | -157.27340 | 34286 ft | 451 kts | 356° |
| 2026-04-11 00:00 | 3.88431 | -157.27282 | 34596 ft | 452 kts | 356° |
| 2026-04-11 00:00 | 3.91579 | -157.27224 | 34910 ft | 451 kts | 356° |
| 2026-04-11 00:01 | 3.94719 | -157.27166 | 35234 ft | 451 kts | 356° |
| 2026-04-11 00:01 | 3.97852 | -157.27107 | 35545 ft | 450 kts | 355° |
| 2026-04-11 00:01 | 4.00994 | -157.27049 | 35818 ft | 451 kts | 355° |
| 2026-04-11 00:01 | 4.04134 | -157.26990 | 36090 ft | 451 kts | 355° |
| 2026-04-11 00:02 | 4.07224 | -157.26933 | 36372 ft | 451 kts | 355° |
| 2026-04-11 00:02 | 4.10369 | -157.26874 | 36642 ft | 450 kts | 355° |
| 2026-04-11 00:02 | 4.13509 | -157.26816 | 36902 ft | 451 kts | 355° |
| 2026-04-11 00:02 | 4.16645 | -157.26757 | 37153 ft | 451 kts | 355° |
| 2026-04-11 00:03 | 4.19787 | -157.26698 | 37408 ft | 451 kts | 355° |
| 2026-04-11 00:03 | 4.22923 | -157.26640 | 37653 ft | 451 kts | 355° |
| 2026-04-11 00:03 | 4.26066 | -157.26582 | 37836 ft | 452 kts | 355° |
| 2026-04-11 00:03 | 4.29198 | -157.26525 | 37814 ft | 455 kts | 355° |
| 2026-04-11 00:04 | 4.35537 | -157.26406 | 37813 ft | 452 kts | 355° |
| 2026-04-11 00:04 | 4.41813 | -157.26285 | 37833 ft | 448 kts | 355° |
| 2026-04-11 00:05 | 4.48032 | -157.26169 | 37824 ft | 447 kts | 355° |
| 2026-04-11 00:05 | 4.54218 | -157.26055 | 37822 ft | 446 kts | 355° |
| 2026-04-11 00:06 | 4.60437 | -157.25940 | 37826 ft | 447 kts | 355° |
| 2026-04-11 00:06 | 4.66679 | -157.25824 | 37825 ft | 448 kts | 355° |
| 2026-04-11 00:07 | 4.72891 | -157.25708 | 37832 ft | 450 kts | 355° |
| 2026-04-11 00:07 | 4.79163 | -157.25591 | 37828 ft | 452 kts | 355° |
| 2026-04-11 00:08 | 4.85466 | -157.25473 | 37828 ft | 453 kts | 355° |
| 2026-04-11 00:08 | 4.91784 | -157.25354 | 37831 ft | 455 kts | 355° |
| 2026-04-11 00:09 | 4.98082 | -157.25236 | 37825 ft | 455 kts | 355° |
| 2026-04-11 00:09 | 5.04439 | -157.25044 | 37815 ft | 457 kts | 357° |
| 2026-04-11 00:10 | 5.10803 | -157.24707 | 37823 ft | 458 kts | 357° |
| 2026-04-11 00:10 | 5.17160 | -157.24359 | 37821 ft | 457 kts | 357° |